Sand Point, AK

5:09 PM AKDT on July 20, 2017 (GMT -0800)
Sand Point

Weather History for PASD - February, 2014

Change the Weather History Date:

Thursday, February 20, 2014

  Actual Average Record
Temperature  
Mean Temperature 30 °F -  
Max Temperature 37 °F 34 °F 44 °F (2015)
Min Temperature 24 °F 28 °F 9 °F (1988)
Degree Days  
Heating Degree Days 34    
Moisture  
Dew Point 32 °F    
Average Humidity 94    
Maximum Humidity 100    
Minimum Humidity 80    
Precipitation  
Precipitation 0.00 in - - ()
Sea Level Pressure  
Sea Level Pressure 29.66 in    
Wind  
Wind Speed 6 mph (ENE)    
Max Wind Speed 14 mph    
Max Gust Speed 24 mph    
Visibility 6 miles    
Events      
Averages and records for this station are not official NWS values.
T = Trace of Precipitation, MM = Missing Value Source: NWS Daily Summary

Daily Weather History Graph

Daily Weather History Graph

Search for Another Location

Airport or City:

Trip Planner

Search our weather history database for the weather conditions in past years. The results will help you decide how hot, cold, wet, or windy it might be!

Date:

Astronomy

Feb. 20, 2014 Rise Set
Actual Time 8:53 AM AKST 6:59 PM AKST
Civil Twilight 8:15 AM AKST 7:36 PM AKST
Nautical Twilight 7:33 AM AKST 8:19 PM AKST
Astronomical Twilight 6:51 AM AKST 9:01 PM AKST
Moon 1:01 AM AKST (2/20) 10:42 AM AKST (2/20)
Length of Visible Light 11h 20m
Length of Day
10h 05m
Waning Gibbous, 69% of the Moon is Illuminated
Feb 20
Waning Gibbous
Feb 22
Last Quarter
Feb 28
New
Mar 8
First Quarter
Mar 16
Full

Hourly Weather History & Observations

Time (AKST) Temp. Windchill Dew Point Humidity Pressure Visibility Wind Dir Wind Speed Gust Speed Precip Events Conditions
12:16 AM 24.8 °F 19.1 °F 21.2 °F 86% 29.87 in 10.0 mi ENE 4.6 mph - N/A   Clear
12:36 AM 24.8 °F - 21.2 °F 86% 29.87 in 10.0 mi Calm Calm - N/A   Clear
12:56 AM 26.6 °F 22.6 °F 21.2 °F 80% 29.87 in 10.0 mi ENE 3.5 mph - N/A   Clear
1:16 AM 26.6 °F 22.6 °F 21.2 °F 80% 29.86 in 10.0 mi NE 3.5 mph - N/A   Clear
1:36 AM 26.6 °F 21.2 °F 23.0 °F 86% 29.85 in 10.0 mi ENE 4.6 mph - N/A   Clear
1:56 AM 28.4 °F 24.6 °F 23.0 °F 80% 29.85 in 10.0 mi NE 3.5 mph - N/A   Mostly Cloudy
2:16 AM 28.4 °F 23.3 °F 24.8 °F 86% 29.85 in 10.0 mi ENE 4.6 mph - N/A   Mostly Cloudy
2:36 AM 28.4 °F 24.6 °F 24.8 °F 86% 29.84 in 10.0 mi ENE 3.5 mph - N/A   Mostly Cloudy
2:56 AM 28.4 °F 24.6 °F 24.8 °F 86% 29.83 in 10.0 mi ENE 3.5 mph - N/A   Overcast
3:16 AM 28.4 °F 24.6 °F 24.8 °F 86% 29.82 in 8.0 mi NE 3.5 mph - N/A   Overcast
3:36 AM 28.4 °F 24.6 °F 26.6 °F 93% 29.81 in 6.0 mi ENE 3.5 mph - N/A   Overcast
3:56 AM 30.2 °F - 26.6 °F 86% 29.81 in 5.0 mi Calm Calm - N/A   Overcast
4:16 AM 30.2 °F 26.7 °F 26.6 °F 86% 29.80 in 5.0 mi East 3.5 mph - N/A   Overcast
4:36 AM 30.2 °F - 26.6 °F 86% 29.80 in 5.0 mi Calm Calm - N/A   Overcast
4:56 AM 30.2 °F 23.4 °F 28.4 °F 93% 29.78 in 3.0 mi East 6.9 mph - N/A   Overcast
5:16 AM 30.2 °F 25.4 °F 28.4 °F 93% 29.76 in 4.0 mi ENE 4.6 mph - N/A   Overcast
5:36 AM 30.2 °F 25.4 °F 28.4 °F 93% 29.74 in 3.0 mi NE 4.6 mph - N/A   Overcast
5:56 AM 30.2 °F 25.4 °F 28.4 °F 93% 29.73 in 4.0 mi ENE 4.6 mph - N/A   Overcast
6:16 AM 30.2 °F 25.4 °F 28.4 °F 93% 29.72 in 4.0 mi ESE 4.6 mph - N/A   Overcast
6:36 AM 32.0 °F 26.4 °F 28.4 °F 87% 29.71 in 5.0 mi East 5.8 mph - N/A   Overcast
6:56 AM 32.0 °F 27.5 °F 28.4 °F 87% 29.70 in 3.0 mi East 4.6 mph - N/A   Overcast
7:16 AM 32.0 °F 28.7 °F 30.2 °F 93% 29.69 in 3.0 mi East 3.5 mph - N/A   Overcast
7:36 AM 32.0 °F 27.5 °F 30.2 °F 93% 29.68 in 3.0 mi East 4.6 mph - N/A   Overcast
7:56 AM 32.0 °F 25.6 °F 30.2 °F 93% 29.67 in 2.5 mi East 6.9 mph - N/A   Overcast
8:16 AM 33.8 °F 27.0 °F 30.2 °F 87% 29.66 in 1.8 mi East 8.1 mph - N/A   Overcast
8:36 AM 33.8 °F 28.6 °F 30.2 °F 87% 29.65 in 1.5 mi East 5.8 mph - N/A   Overcast
8:56 AM 33.8 °F 27.7 °F 32.0 °F 93% 29.64 in 0.8 mi ENE 6.9 mph - N/A   Overcast
9:16 AM 33.8 °F 27.7 °F 32.0 °F 93% 29.63 in 1.0 mi ENE 6.9 mph - N/A   Overcast
9:36 AM 33.8 °F 27.0 °F 32.0 °F 93% 29.63 in 1.0 mi East 8.1 mph - N/A   Overcast
9:56 AM 33.8 °F 29.6 °F 33.8 °F 100% 29.62 in 1.0 mi East 4.6 mph - N/A   Overcast
10:16 AM 33.8 °F 27.0 °F 33.8 °F 100% 29.61 in 1.0 mi ENE 8.1 mph - N/A   Overcast
10:36 AM 33.8 °F 27.0 °F 33.8 °F 100% 29.61 in 1.0 mi ENE 8.1 mph - N/A   Overcast
10:56 AM 33.8 °F 28.6 °F 33.8 °F 100% 29.60 in 1.0 mi ENE 5.8 mph - N/A   Overcast
11:16 AM 33.8 °F 28.6 °F 33.8 °F 100% 29.59 in 1.0 mi ENE 5.8 mph 23.0 mph N/A   Overcast
11:36 AM 33.8 °F 26.4 °F 32.0 °F 93% 29.58 in 1.5 mi NE 9.2 mph - N/A   Overcast
11:56 AM 33.8 °F 27.7 °F 32.0 °F 93% 29.58 in 1.5 mi ENE 6.9 mph 17.3 mph N/A   Overcast
12:16 PM 33.8 °F 27.7 °F 32.0 °F 93% 29.57 in 1.2 mi NE 6.9 mph 16.1 mph N/A   Overcast
12:36 PM 33.8 °F 27.0 °F 32.0 °F 93% 29.57 in 1.2 mi NE 8.1 mph - N/A   Overcast
12:56 PM 33.8 °F 27.0 °F 32.0 °F 93% 29.57 in 1.5 mi NE 8.1 mph 17.3 mph N/A   Overcast
1:16 PM 33.8 °F 25.8 °F 32.0 °F 93% 29.56 in 1.5 mi NE 10.4 mph 16.1 mph N/A   Overcast
1:36 PM 33.8 °F 25.3 °F 32.0 °F 93% 29.56 in 4.0 mi NE 11.5 mph 19.6 mph N/A   Overcast
1:56 PM 33.8 °F 24.8 °F 33.8 °F 100% 29.56 in 4.0 mi NE 12.7 mph 23.0 mph N/A   Overcast
2:16 PM 35.6 °F 28.0 °F 33.8 °F 93% 29.56 in 4.0 mi NE 10.4 mph 20.7 mph N/A   Overcast
2:36 PM 35.6 °F 27.1 °F 33.8 °F 93% 29.55 in 5.0 mi NE 12.7 mph 21.9 mph N/A   Overcast
2:56 PM 35.6 °F 28.0 °F 33.8 °F 93% 29.56 in 6.0 mi NE 10.4 mph - N/A   Overcast
3:16 PM 35.6 °F 28.6 °F 35.6 °F 100% 29.56 in 5.0 mi NE 9.2 mph 17.3 mph N/A   Overcast
3:36 PM 35.6 °F 27.5 °F 35.6 °F 100% 29.56 in 5.0 mi NE 11.5 mph 19.6 mph N/A   Overcast
3:56 PM 35.6 °F 28.0 °F 35.6 °F 100% 29.57 in 5.0 mi NE 10.4 mph 17.3 mph N/A   Overcast
4:16 PM 35.6 °F 28.0 °F 35.6 °F 100% 29.57 in 6.0 mi NE 10.4 mph 17.3 mph N/A   Overcast
4:36 PM 35.6 °F 26.6 °F 35.6 °F 100% 29.57 in 8.0 mi NNE 13.8 mph 21.9 mph N/A   Overcast
4:56 PM 35.6 °F 27.1 °F 35.6 °F 100% 29.58 in 9.0 mi NE 12.7 mph 19.6 mph N/A   Mostly Cloudy
5:16 PM 35.6 °F 27.1 °F 35.6 °F 100% 29.58 in 9.0 mi NE 12.7 mph 18.4 mph N/A   Mostly Cloudy
5:36 PM 35.6 °F 27.5 °F 35.6 °F 100% 29.59 in 9.0 mi NE 11.5 mph 17.3 mph N/A   Overcast
5:56 PM 35.6 °F 28.0 °F 35.6 °F 100% 29.59 in 10.0 mi NE 10.4 mph 16.1 mph N/A   Mostly Cloudy
6:16 PM 35.6 °F 29.2 °F 35.6 °F 100% 29.60 in 10.0 mi NE 8.1 mph - N/A   Mostly Cloudy
6:36 PM 35.6 °F 30.7 °F 35.6 °F 100% 29.60 in 7.0 mi NE 5.8 mph - N/A   Overcast
6:56 PM 35.6 °F 30.7 °F 33.8 °F 93% 29.61 in 7.0 mi NE 5.8 mph - N/A   Overcast
7:16 PM 35.6 °F 29.2 °F 33.8 °F 93% 29.61 in 7.0 mi NE 8.1 mph - N/A   Overcast
7:36 PM 35.6 °F 28.0 °F 33.8 °F 93% 29.61 in 7.0 mi NE 10.4 mph - N/A   Overcast
7:56 PM 35.6 °F 29.2 °F 35.6 °F 100% 29.61 in 7.0 mi NE 8.1 mph - N/A   Overcast
8:16 PM 35.6 °F 29.9 °F 35.6 °F 100% 29.62 in 9.0 mi ENE 6.9 mph - N/A   Overcast
8:36 PM 35.6 °F 28.6 °F 35.6 °F 100% 29.62 in 10.0 mi NE 9.2 mph - N/A   Overcast
8:56 PM 35.6 °F 29.2 °F 35.6 °F 100% 29.62 in 10.0 mi ENE 8.1 mph - N/A   Overcast
9:16 PM 37.4 °F 32.1 °F 35.6 °F 93% 29.62 in 10.0 mi NE 6.9 mph - N/A   Mostly Cloudy
9:36 PM 37.4 °F 30.8 °F 35.6 °F 93% 29.62 in 10.0 mi ENE 9.2 mph - N/A   Mostly Cloudy
9:56 PM 37.4 °F 32.1 °F 37.4 °F 100% 29.63 in 10.0 mi NE 6.9 mph - N/A   Overcast
10:16 PM 37.4 °F 30.3 °F 37.4 °F 100% 29.63 in 10.0 mi NE 10.4 mph 18.4 mph N/A   Overcast
10:36 PM 37.4 °F 31.4 °F 37.4 °F 100% 29.63 in 8.0 mi NE 8.1 mph - N/A   Overcast
10:56 PM 37.4 °F 30.8 °F 37.4 °F 100% 29.63 in 5.0 mi NE 9.2 mph 19.6 mph N/A   Overcast
11:16 PM 37.4 °F 30.8 °F 37.4 °F 100% 29.63 in 10.0 mi NE 9.2 mph 18.4 mph N/A   Overcast
11:36 PM 37.4 °F 29.8 °F 37.4 °F 100% 29.61 in 5.0 mi NE 11.5 mph 24.2 mph N/A   Overcast
11:56 PM 37.4 °F 29.3 °F 37.4 °F 100% 29.61 in 8.0 mi NE 12.7 mph 20.7 mph N/A   Overcast